Richton Park, Illinois
Current Conditions -  °F | °C
As of 6:35 AM on Sunday 21 Dec 2014 (Local Time) from KIGQ Reporting Station
Overcast Overcast  
Wind Chill: -3°   Ceiling: 3600
Heat Index:   Visibility: 10mi
Dew Point: -3°   Wind: 6mph
Humidity: 82%   Direction: 190°S
Pressure: 30.24"   Gusts: NA
Location:  41.48°N, 87.72°W
Report Text: KIGQ 211235Z AUTO 19005KT 10SM OVC036 00/M03 A3024 RMK AO2 T00001027
Loading
Personal Weather Stations






























Interactive Weather Map New forecast layout! Learn more

10-Day Weather Forecast

Advertisements
Track Severe Weather on mobile